Time;durP1;ratioP1;P1;durP2;ratioP2;P2;SDS_P1;SDS_P2;PMS_P1;PMS_P2;Temp;Humidity;BMP_temperature;BMP_pressure;BME280_temperature;BME280_humidity;BME280_pressure;Samples;Min_cycle;Max_cycle;Signal;HPM_P1;HPM_P2
2022/01/30 00:00:10;;;;;;;0.63;0.63;;;;;;;;;;5000506;28;20475;-82
2022/01/30 00:02:36;;;;;;;0.63;0.63;;;;;;;;;;4999938;28;20029;-84
2022/01/30 00:05:02;;;;;;;1.85;0.85;;;;;;;;;;5022760;28;20033;-83
2022/01/30 00:07:27;;;;;;;2.25;1.00;;;;;;;;;;5032146;28;20392;-84
2022/01/30 00:09:53;;;;;;;0.60;0.60;;;;;;;;;;5017822;28;20028;-85
2022/01/30 00:12:25;;;;;;;1.00;0.80;;;;;;;;;;5018068;28;20030;-85
2022/01/30 00:14:54;;;;;;;0.88;0.82;;;;;;;;;;5018847;28;20092;-83
2022/01/30 00:17:24;;;;;;;1.60;1.02;;;;;;;;;;5032875;28;20391;-83
2022/01/30 00:19:59;;;;;;;4.40;0.98;;;;;;;;;;5022056;28;20030;-83
2022/01/30 00:25:01;;;;;;;0.75;0.75;;;;;;;;;;5018500;28;20041;-85
2022/01/30 00:27:45;;;;;;;2.63;1.17;;;;;;;;;;5006944;28;20030;-83
2022/01/30 00:30:13;;;;;;;1.92;1.00;;;;;;;;;;5003661;28;20022;-84
2022/01/30 00:32:39;;;;;;;1.50;1.10;;;;;;;;;;5021523;28;20395;-83
2022/01/30 00:35:05;;;;;;;1.25;0.90;;;;;;;;;;5018996;28;20030;-82
2022/01/30 00:37:30;;;;;;;3.85;1.55;;;;;;;;;;5037397;28;20033;-84
2022/01/30 00:39:55;;;;;;;1.90;1.20;;;;;;;;;;5037106;28;20025;-83
2022/01/30 00:42:22;;;;;;;2.78;1.48;;;;;;;;;;5017870;28;20391;-83
2022/01/30 00:44:47;;;;;;;0.90;0.90;;;;;;;;;;5034789;28;20031;-85
2022/01/30 00:47:14;;;;;;;1.08;0.80;;;;;;;;;;5034880;28;20137;-85
2022/01/30 00:49:40;;;;;;;2.00;1.02;;;;;;;;;;5035960;28;20028;-85
2022/01/30 00:52:07;;;;;;;1.67;1.38;;;;;;;;;;4997579;28;20065;-85
2022/01/30 00:54:32;;;;;;;1.50;1.13;;;;;;;;;;4998372;28;20057;-84
2022/01/30 00:56:57;;;;;;;2.25;0.90;;;;;;;;;;5017460;28;20085;-86
2022/01/30 00:59:23;;;;;;;1.17;1.05;;;;;;;;;;5018459;28;20025;-84
2022/01/30 01:01:48;;;;;;;1.30;1.20;;;;;;;;;;5016111;28;20155;-85
2022/01/30 01:04:14;;;;;;;1.00;1.00;;;;;;;;;;5017369;28;20021;-85
2022/01/30 01:06:40;;;;;;;1.42;1.10;;;;;;;;;;5017549;28;20030;-84
2022/01/30 01:09:06;;;;;;;1.20;1.10;;;;;;;;;;5016626;28;20029;-84
2022/01/30 01:24:56;;;;;;;5.18;1.30;;;;;;;;;;5017738;28;20103;-84
2022/01/30 01:27:22;;;;;;;1.20;1.20;;;;;;;;;;5011203;28;20046;-84
2022/01/30 01:29:48;;;;;;;1.20;1.10;;;;;;;;;;5023550;28;20120;-84
2022/01/30 01:32:13;;;;;;;1.35;1.25;;;;;;;;;;5036646;28;20030;-84
2022/01/30 01:34:40;;;;;;;1.23;1.13;;;;;;;;;;5036604;28;20066;-84
2022/01/30 01:37:11;;;;;;;1.17;1.00;;;;;;;;;;5034203;28;20017;-84
2022/01/30 01:39:36;;;;;;;1.23;1.00;;;;;;;;;;4998488;28;20024;-85
2022/01/30 01:42:03;;;;;;;1.20;1.10;;;;;;;;;;4996837;28;20029;-84
2022/01/30 01:44:37;;;;;;;2.15;1.55;;;;;;;;;;5012319;28;20027;-85
2022/01/30 01:47:04;;;;;;;2.63;1.70;;;;;;;;;;4992669;28;20022;-85
2022/01/30 01:49:31;;;;;;;3.25;1.45;;;;;;;;;;5005330;28;20028;-84
2022/01/30 01:54:46;;;;;;;1.60;1.50;;;;;;;;;;5016499;28;20026;-84
2022/01/30 01:57:11;;;;;;;1.48;1.38;;;;;;;;;;5011602;28;20480;-84
2022/01/30 01:59:37;;;;;;;1.45;1.33;;;;;;;;;;4997671;28;20029;-84
2022/01/30 02:02:04;;;;;;;1.52;1.17;;;;;;;;;;5022569;28;20018;-84
2022/01/30 02:04:29;;;;;;;4.13;1.20;;;;;;;;;;5013169;28;20105;-85
2022/01/30 02:07:14;;;;;;;0.75;0.75;;;;;;;;;;5015550;28;20045;-84
2022/01/30 02:09:41;;;;;;;1.45;0.95;;;;;;;;;;4996431;28;20483;-84
2022/01/30 02:12:14;;;;;;;0.60;0.60;;;;;;;;;;5013264;28;20045;-84
2022/01/30 02:14:49;;;;;;;0.90;0.80;;;;;;;;;;4996499;28;20057;-84
2022/01/30 02:27:59;;;;;;;0.70;0.70;;;;;;;;;;5037412;28;20025;-83
2022/01/30 02:30:30;;;;;;;1.83;1.00;;;;;;;;;;5018864;28;20040;-83
2022/01/30 02:32:57;;;;;;;1.08;0.65;;;;;;;;;;5034381;28;20032;-85
2022/01/30 02:35:22;;;;;;;1.42;1.10;;;;;;;;;;5013311;28;20021;-85
2022/01/30 02:37:51;;;;;;;1.50;1.20;;;;;;;;;;5009320;28;20108;-84
2022/01/30 02:40:17;;;;;;;2.25;1.30;;;;;;;;;;5013867;28;20081;-84
2022/01/30 02:42:47;;;;;;;1.30;1.20;;;;;;;;;;5015410;28;20459;-85
2022/01/30 02:45:15;;;;;;;2.10;1.45;;;;;;;;;;5015156;28;20476;-84
2022/01/30 02:48:32;;;;;;;1.98;1.40;;;;;;;;;;5014986;28;20033;-84
2022/01/30 02:50:51;;;;;;;3.03;1.30;;;;;;;;;;5004058;28;20037;-83
2022/01/30 02:53:17;;;;;;;1.25;1.00;;;;;;;;;;5010461;28;20096;-83
2022/01/30 02:55:42;;;;;;;2.25;1.30;;;;;;;;;;5015325;28;20053;-84
2022/01/30 02:58:08;;;;;;;2.13;1.77;;;;;;;;;;5012248;28;20592;-85
2022/01/30 03:00:33;;;;;;;2.47;1.00;;;;;;;;;;5016858;28;20029;-84
2022/01/30 03:02:59;;;;;;;4.60;1.73;;;;;;;;;;5012686;28;20218;-84
2022/01/30 03:05:25;;;;;;;1.50;1.40;;;;;;;;;;5013864;28;20498;-84
2022/01/30 03:07:52;;;;;;;1.77;1.65;;;;;;;;;;5009658;28;20052;-84
2022/01/30 03:10:17;;;;;;;1.67;1.40;;;;;;;;;;5005455;28;20104;-84
2022/01/30 03:12:43;;;;;;;1.38;1.05;;;;;;;;;;4996030;28;20109;-84
2022/01/30 03:15:10;;;;;;;1.52;1.40;;;;;;;;;;5017378;28;20029;-83
2022/01/30 03:17:36;;;;;;;2.10;1.10;;;;;;;;;;5020009;28;20018;-83
2022/01/30 03:20:03;;;;;;;1.88;1.15;;;;;;;;;;5012254;28;20080;-83
2022/01/30 03:22:29;;;;;;;2.65;1.30;;;;;;;;;;4999043;28;20018;-83
2022/01/30 03:24:54;;;;;;;1.83;1.13;;;;;;;;;;5017918;28;20030;-83
2022/01/30 03:27:19;;;;;;;2.80;1.20;;;;;;;;;;5015646;28;20021;-84
2022/01/30 03:30:32;;;;;;;1.17;0.98;;;;;;;;;;5015175;28;20053;-83
2022/01/30 03:32:57;;;;;;;1.02;1.02;;;;;;;;;;4996028;28;20109;-83
2022/01/30 03:35:23;;;;;;;1.77;1.23;;;;;;;;;;4997614;28;20061;-83
2022/01/30 03:37:49;;;;;;;1.30;1.20;;;;;;;;;;4997297;28;20445;-84
2022/01/30 03:40:14;;;;;;;1.35;1.23;;;;;;;;;;4998129;28;20026;-84
2022/01/30 03:42:40;;;;;;;2.67;1.30;;;;;;;;;;4997114;28;20018;-82
2022/01/30 03:45:06;;;;;;;1.17;1.17;;;;;;;;;;5014787;28;20026;-84
2022/01/30 03:47:31;;;;;;;1.30;1.20;;;;;;;;;;5022051;28;20392;-84
2022/01/30 03:49:56;;;;;;;1.95;1.58;;;;;;;;;;5008527;28;20029;-84
2022/01/30 03:52:22;;;;;;;1.48;1.38;;;;;;;;;;5037350;28;20081;-82
2022/01/30 03:54:47;;;;;;;1.38;1.30;;;;;;;;;;5011657;28;20017;-83
2022/01/30 03:57:13;;;;;;;2.42;1.40;;;;;;;;;;5014373;28;20603;-85
2022/01/30 03:59:38;;;;;;;4.07;1.55;;;;;;;;;;5017997;28;20018;-84
2022/01/30 04:02:04;;;;;;;4.55;1.60;;;;;;;;;;5016645;28;20108;-84
2022/01/30 04:04:32;;;;;;;4.63;1.60;;;;;;;;;;5016463;28;20472;-85
2022/01/30 04:06:58;;;;;;;1.90;1.38;;;;;;;;;;4997517;28;20034;-85
2022/01/30 04:09:25;;;;;;;1.52;1.27;;;;;;;;;;5016883;28;20021;-84
2022/01/30 04:11:50;;;;;;;4.43;1.70;;;;;;;;;;5017713;28;20049;-84
2022/01/30 04:14:16;;;;;;;4.60;2.00;;;;;;;;;;5028498;28;20013;-84
2022/01/30 04:16:42;;;;;;;4.85;1.92;;;;;;;;;;5018783;28;20388;-85
2022/01/30 04:19:07;;;;;;;3.58;1.50;;;;;;;;;;5011319;28;20041;-84
2022/01/30 04:21:33;;;;;;;2.97;1.25;;;;;;;;;;4999371;28;20030;-83
2022/01/30 04:23:58;;;;;;;6.57;2.08;;;;;;;;;;4999162;28;20040;-85
2022/01/30 04:26:24;;;;;;;3.03;1.70;;;;;;;;;;5016856;28;20554;-84
2022/01/30 04:28:49;;;;;;;5.78;1.92;;;;;;;;;;5015386;28;20174;-84
2022/01/30 04:31:15;;;;;;;3.30;1.55;;;;;;;;;;5010416;28;20435;-83
2022/01/30 04:33:41;;;;;;;4.05;1.90;;;;;;;;;;5017170;28;20118;-85
2022/01/30 04:36:09;;;;;;;6.07;1.75;;;;;;;;;;5018426;28;20030;-86
2022/01/30 04:38:53;;;;;;;5.22;2.08;;;;;;;;;;4999628;28;20575;-85
2022/01/30 04:41:39;;;;;;;8.40;2.00;;;;;;;;;;5017324;28;20022;-85
2022/01/30 04:52:38;;;;;;;3.30;1.58;;;;;;;;;;5017700;28;20445;-86
2022/01/30 04:57:50;;;;;;;6.03;2.10;;;;;;;;;;5018338;28;20022;-85
2022/01/30 05:03:02;;;;;;;6.70;2.53;;;;;;;;;;5018742;28;20022;-84
2022/01/30 05:05:53;;;;;;;7.45;2.70;;;;;;;;;;5015139;28;20035;-86
2022/01/30 05:08:19;;;;;;;7.20;1.90;;;;;;;;;;5017396;28;20026;-86
2022/01/30 05:10:44;;;;;;;10.07;2.20;;;;;;;;;;5018756;28;20113;-86
2022/01/30 05:13:15;;;;;;;11.32;2.95;;;;;;;;;;5017001;28;20046;-85
2022/01/30 05:15:43;;;;;;;8.88;2.20;;;;;;;;;;5019159;28;20029;-86
2022/01/30 05:18:08;;;;;;;5.55;2.47;;;;;;;;;;5018011;28;20688;-86
2022/01/30 05:20:35;;;;;;;5.53;2.67;;;;;;;;;;5017093;28;20040;-85
2022/01/30 05:23:01;;;;;;;3.42;2.13;;;;;;;;;;5017810;28;20033;-85
2022/01/30 05:25:26;;;;;;;12.25;2.63;;;;;;;;;;5000070;28;20026;-81
2022/01/30 05:27:52;;;;;;;7.15;2.58;;;;;;;;;;5016596;28;20030;-85
2022/01/30 05:30:17;;;;;;;6.53;2.33;;;;;;;;;;5003673;28;20472;-85
2022/01/30 05:32:43;;;;;;;8.32;2.42;;;;;;;;;;5019060;28;20022;-84
2022/01/30 05:35:09;;;;;;;12.85;3.10;;;;;;;;;;5020063;28;20030;-85
2022/01/30 05:37:37;;;;;;;9.93;3.20;;;;;;;;;;5017354;28;20029;-85
2022/01/30 05:40:04;;;;;;;11.23;2.67;;;;;;;;;;5016336;28;20028;-87
2022/01/30 05:42:30;;;;;;;4.15;2.30;;;;;;;;;;4999128;28;20022;-82
2022/01/30 05:47:27;;;;;;;7.65;2.83;;;;;;;;;;5017443;28;20120;-84
2022/01/30 05:49:53;;;;;;;9.73;2.80;;;;;;;;;;5000108;28;20034;-86
2022/01/30 05:52:19;;;;;;;7.15;2.55;;;;;;;;;;4999400;28;20353;-84
2022/01/30 05:54:44;;;;;;;4.28;2.58;;;;;;;;;;5019543;28;20017;-87
2022/01/30 05:57:09;;;;;;;9.85;3.75;;;;;;;;;;5018305;28;20022;-86
2022/01/30 05:59:35;;;;;;;7.40;2.78;;;;;;;;;;5001978;28;20026;-87
2022/01/30 06:02:00;;;;;;;10.77;3.13;;;;;;;;;;4999734;28;20023;-86
2022/01/30 06:04:26;;;;;;;8.30;2.70;;;;;;;;;;5001438;28;20064;-87
2022/01/30 06:06:53;;;;;;;7.50;2.75;;;;;;;;;;5018576;28;20021;-85
2022/01/30 06:09:19;;;;;;;10.18;2.55;;;;;;;;;;5018136;28;20052;-85
2022/01/30 06:11:47;;;;;;;8.23;2.92;;;;;;;;;;5023163;28;20026;-84
2022/01/30 06:14:14;;;;;;;5.55;2.05;;;;;;;;;;5021936;28;20472;-85
2022/01/30 06:16:40;;;;;;;8.00;2.75;;;;;;;;;;5022676;28;20052;-85
2022/01/30 06:19:05;;;;;;;7.68;2.40;;;;;;;;;;5002349;28;20037;-84
2022/01/30 06:21:31;;;;;;;9.65;3.05;;;;;;;;;;5015028;28;20018;-84
2022/01/30 06:23:56;;;;;;;7.07;2.50;;;;;;;;;;5021305;28;20033;-85
2022/01/30 06:26:22;;;;;;;5.70;2.63;;;;;;;;;;5023660;28;20048;-85
2022/01/30 06:28:47;;;;;;;1.58;1.48;;;;;;;;;;5006116;28;20030;-84
2022/01/30 06:31:13;;;;;;;10.90;2.85;;;;;;;;;;5003711;28;20026;-86
2022/01/30 06:33:38;;;;;;;6.15;2.10;;;;;;;;;;5016007;28;20033;-86
2022/01/30 06:36:04;;;;;;;6.97;2.33;;;;;;;;;;5015371;28;20026;-86
2022/01/30 06:38:29;;;;;;;7.90;2.35;;;;;;;;;;4996079;28;20026;-85
2022/01/30 06:40:54;;;;;;;3.15;1.60;;;;;;;;;;4997017;28;20121;-85
2022/01/30 06:43:20;;;;;;;8.88;2.70;;;;;;;;;;4995984;28;20399;-86
2022/01/30 06:45:47;;;;;;;8.35;2.40;;;;;;;;;;5012450;28;20073;-84
2022/01/30 06:48:16;;;;;;;9.48;2.65;;;;;;;;;;5014801;28;20040;-84
2022/01/30 06:50:41;;;;;;;9.45;2.70;;;;;;;;;;5010166;28;20552;-84
2022/01/30 06:53:07;;;;;;;8.30;2.55;;;;;;;;;;5084517;23;20511;-88
2022/01/30 06:55:32;;;;;;;8.32;2.30;;;;;;;;;;4982788;28;20391;-88
2022/01/30 06:57:57;;;;;;;2.33;1.40;;;;;;;;;;4987313;28;20112;-88
2022/01/30 07:00:23;;;;;;;7.40;2.47;;;;;;;;;;4988281;28;20393;-88
2022/01/30 07:02:48;;;;;;;8.25;2.70;;;;;;;;;;5003783;28;20018;-88
2022/01/30 07:05:14;;;;;;;4.68;1.92;;;;;;;;;;5003518;28;20455;-89
2022/01/30 07:07:40;;;;;;;8.75;2.97;;;;;;;;;;4989013;28;20459;-88
2022/01/30 07:10:07;;;;;;;9.05;2.88;;;;;;;;;;5001852;28;20042;-87
2022/01/30 07:12:33;;;;;;;10.48;2.97;;;;;;;;;;5000991;28;20014;-89
2022/01/30 07:14:58;;;;;;;9.93;2.47;;;;;;;;;;5001841;28;20582;-88
2022/01/30 07:17:23;;;;;;;14.23;2.35;;;;;;;;;;5005615;28;20025;-88
2022/01/30 07:19:49;;;;;;;7.65;2.17;;;;;;;;;;5003902;28;20400;-88
2022/01/30 07:22:14;;;;;;;3.83;2.10;;;;;;;;;;4993969;28;20050;-87
2022/01/30 07:24:40;;;;;;;6.40;2.15;;;;;;;;;;4997072;28;20026;-88
2022/01/30 07:27:10;;;;;;;5.80;2.10;;;;;;;;;;4995130;28;20010;-86
2022/01/30 07:29:35;;;;;;;14.75;3.00;;;;;;;;;;5012628;28;20021;-88
2022/01/30 07:32:01;;;;;;;5.47;2.33;;;;;;;;;;4992505;28;20023;-88
2022/01/30 07:34:26;;;;;;;6.47;1.90;;;;;;;;;;5000524;28;20026;-89
2022/01/30 07:36:56;;;;;;;8.68;2.20;;;;;;;;;;5003780;28;20368;-88
2022/01/30 07:39:26;;;;;;;8.55;3.03;;;;;;;;;;4989190;28;20044;-89
2022/01/30 07:41:52;;;;;;;13.88;2.60;;;;;;;;;;4998218;28;20038;-88
2022/01/30 07:44:17;;;;;;;11.52;3.15;;;;;;;;;;4997935;28;20042;-87
2022/01/30 07:46:43;;;;;;;11.98;3.22;;;;;;;;;;4983657;28;20033;-88
2022/01/30 07:49:09;;;;;;;10.43;2.83;;;;;;;;;;5002146;28;20057;-88
2022/01/30 07:51:34;;;;;;;7.47;2.00;;;;;;;;;;4999846;28;20101;-86
2022/01/30 07:54:00;;;;;;;8.15;2.70;;;;;;;;;;4991328;28;20068;-89
2022/01/30 07:56:25;;;;;;;7.72;3.10;;;;;;;;;;4997590;28;20026;-90
2022/01/30 07:58:51;;;;;;;9.13;2.47;;;;;;;;;;4980802;28;20026;-89
2022/01/30 08:01:16;;;;;;;6.93;3.00;;;;;;;;;;4998302;28;20412;-88
2022/01/30 08:03:41;;;;;;;7.72;2.65;;;;;;;;;;5004091;28;20030;-88
2022/01/30 08:06:07;;;;;;;7.32;2.85;;;;;;;;;;4979817;28;20483;-89
2022/01/30 08:08:32;;;;;;;19.17;2.83;;;;;;;;;;4992631;28;20042;-90
2022/01/30 08:10:58;;;;;;;4.53;1.92;;;;;;;;;;4996756;28;20026;-89
2022/01/30 08:13:23;;;;;;;15.05;2.08;;;;;;;;;;4989804;28;20039;-88
2022/01/30 08:15:49;;;;;;;5.88;2.10;;;;;;;;;;4996128;28;20022;-88
2022/01/30 08:18:14;;;;;;;7.50;2.53;;;;;;;;;;4967789;28;20403;-88
2022/01/30 08:20:40;;;;;;;8.00;2.25;;;;;;;;;;4989266;28;20046;-89
2022/01/30 08:23:11;;;;;;;15.32;3.90;;;;;;;;;;4978041;28;20018;-88
2022/01/30 08:25:37;;;;;;;7.95;2.70;;;;;;;;;;4983688;28;20512;-88
2022/01/30 08:28:02;;;;;;;8.45;2.33;;;;;;;;;;4997313;28;20042;-88
2022/01/30 08:30:28;;;;;;;6.88;2.20;;;;;;;;;;4971221;28;20061;-87
2022/01/30 08:32:54;;;;;;;7.55;2.40;;;;;;;;;;4979567;28;20085;-92
2022/01/30 08:35:20;;;;;;;4.05;2.08;;;;;;;;;;4979456;28;20061;-88
2022/01/30 08:37:46;;;;;;;8.00;2.47;;;;;;;;;;4978778;28;20026;-90
2022/01/30 08:40:18;;;;;;;8.20;2.17;;;;;;;;;;4996283;28;20086;-89
2022/01/30 08:42:44;;;;;;;4.53;1.92;;;;;;;;;;4980191;28;20022;-88
2022/01/30 08:45:10;;;;;;;4.75;2.08;;;;;;;;;;4996381;28;20054;-88
2022/01/30 08:47:36;;;;;;;7.43;2.42;;;;;;;;;;4993227;28;20030;-88
2022/01/30 08:50:04;;;;;;;9.25;1.77;;;;;;;;;;4996788;28;20109;-89
2022/01/30 08:52:30;;;;;;;4.82;2.58;;;;;;;;;;4979146;28;20053;-88
2022/01/30 08:54:55;;;;;;;9.65;1.92;;;;;;;;;;4996767;28;20476;-87
2022/01/30 08:57:21;;;;;;;5.35;2.08;;;;;;;;;;4993327;28;20042;-89
2022/01/30 08:59:46;;;;;;;8.10;2.88;;;;;;;;;;4990461;28;20029;-88
2022/01/30 09:02:12;;;;;;;7.75;2.42;;;;;;;;;;4997419;28;20089;-87
2022/01/30 09:04:38;;;;;;;13.70;2.25;;;;;;;;;;4996350;28;20018;-87
2022/01/30 09:07:03;;;;;;;11.63;2.10;;;;;;;;;;4979414;28;20717;-88
2022/01/30 09:09:30;;;;;;;12.00;2.22;;;;;;;;;;4996711;28;20033;-89
2022/01/30 09:11:57;;;;;;;8.63;2.47;;;;;;;;;;4993740;28;20022;-88
2022/01/30 09:14:23;;;;;;;4.22;1.63;;;;;;;;;;4995911;28;20042;-89
2022/01/30 09:16:49;;;;;;;9.40;2.30;;;;;;;;;;4996038;28;20026;-87
2022/01/30 09:19:15;;;;;;;9.88;2.92;;;;;;;;;;4978665;28;20050;-90
2022/01/30 09:21:40;;;;;;;7.25;2.60;;;;;;;;;;4978885;28;20440;-88
2022/01/30 09:24:06;;;;;;;9.68;2.42;;;;;;;;;;4997543;28;20030;-89
2022/01/30 09:26:31;;;;;;;8.23;2.40;;;;;;;;;;4982903;28;20048;-88
2022/01/30 09:28:57;;;;;;;11.20;2.70;;;;;;;;;;4980886;28;20113;-88
2022/01/30 09:31:22;;;;;;;14.35;3.20;;;;;;;;;;4996807;28;20019;-89
2022/01/30 09:33:48;;;;;;;10.98;2.40;;;;;;;;;;4996593;28;20037;-87
2022/01/30 09:36:14;;;;;;;10.55;2.58;;;;;;;;;;5000786;28;20007;-85
2022/01/30 09:38:42;;;;;;;8.38;2.25;;;;;;;;;;4998823;28;20030;-86
2022/01/30 09:41:11;;;;;;;6.82;2.38;;;;;;;;;;5000581;28;20114;-90
2022/01/30 09:43:37;;;;;;;8.73;2.72;;;;;;;;;;4974371;28;20023;-90
2022/01/30 09:46:03;;;;;;;9.30;2.05;;;;;;;;;;4979403;28;20483;-89
2022/01/30 09:48:35;;;;;;;13.48;2.67;;;;;;;;;;4978531;28;20034;-90
2022/01/30 09:51:03;;;;;;;20.48;2.35;;;;;;;;;;4993884;28;20037;-89
2022/01/30 09:53:28;;;;;;;12.05;2.42;;;;;;;;;;4994238;28;20054;-91
2022/01/30 09:55:54;;;;;;;15.43;3.10;;;;;;;;;;4980066;28;20035;-89
2022/01/30 09:58:19;;;;;;;5.13;2.53;;;;;;;;;;4990057;28;20391;-88
2022/01/30 10:00:45;;;;;;;15.43;4.68;;;;;;;;;;4991654;28;20022;-89
2022/01/30 10:03:10;;;;;;;12.55;3.55;;;;;;;;;;4990285;28;20014;-86
2022/01/30 10:05:58;;;;;;;10.73;2.28;;;;;;;;;;4988112;28;20110;-92
2022/01/30 10:08:28;;;;;;;7.20;2.25;;;;;;;;;;4974267;28;20030;-87
2022/01/30 10:11:00;;;;;;;12.50;2.70;;;;;;;;;;5000039;28;20030;-87
2022/01/30 10:13:30;;;;;;;;;;;;;;;;;;4996348;28;20030;-87
2022/01/30 10:16:00;;;;;;;12.95;2.40;;;;;;;;;;4979598;28;19916;-91
2022/01/30 10:18:31;;;;;;;6.63;1.90;;;;;;;;;;4973177;28;20026;-91
2022/01/30 10:20:57;;;;;;;5.15;1.85;;;;;;;;;;4999042;28;20069;-90
2022/01/30 10:23:36;;;;;;;17.23;2.65;;;;;;;;;;4997241;28;20027;-91
2022/01/30 10:26:07;;;;;;;10.27;2.47;;;;;;;;;;4998027;28;20351;-91
2022/01/30 10:28:34;;;;;;;1.83;1.63;;;;;;;;;;4974975;28;20436;-89
2022/01/30 10:31:05;;;;;;;5.53;1.65;;;;;;;;;;4994732;28;20026;-91
2022/01/30 10:33:48;;;;;;;3.80;1.95;;;;;;;;;;4995717;28;20073;-89
2022/01/30 10:36:32;;;;;;;7.75;1.73;;;;;;;;;;4973881;28;20502;-89
2022/01/30 10:39:01;;;;;;;3.35;1.20;;;;;;;;;;4980183;28;20041;-89
2022/01/30 10:41:37;;;;;;;5.40;1.92;;;;;;;;;;5001763;28;20026;-87
2022/01/30 10:44:05;;;;;;;6.38;2.13;;;;;;;;;;4999965;28;20048;-90
2022/01/30 10:46:52;;;;;;;5.63;2.13;;;;;;;;;;4984634;28;20026;-91
2022/01/30 10:49:22;;;;;;;3.50;1.67;;;;;;;;;;4980825;28;20104;-88
2022/01/30 10:51:57;;;;;;;4.30;1.35;;;;;;;;;;5000682;28;20026;-89
2022/01/30 10:54:29;;;;;;;6.20;1.67;;;;;;;;;;4979715;28;20077;-91
2022/01/30 10:57:21;;;;;;;7.20;2.10;;;;;;;;;;4983390;28;20026;-90
2022/01/30 10:59:53;;;;;;;4.05;2.03;;;;;;;;;;4976671;28;20042;-86
2022/01/30 11:02:21;;;;;;;;;;;;;;;;;;4966784;28;20130;-88
2022/01/30 11:04:48;;;;;;;12.38;2.10;;;;;;;;;;4974549;28;19917;-88
2022/01/30 11:07:17;;;;;;;4.10;1.50;;;;;;;;;;4988594;28;20061;-88
2022/01/30 11:09:55;;;;;;;10.90;2.60;;;;;;;;;;4978078;28;20022;-91
2022/01/30 11:12:32;;;;;;;7.47;2.13;;;;;;;;;;4987309;28;20027;-91
2022/01/30 11:15:15;;;;;;;20.30;2.63;;;;;;;;;;4996337;28;20483;-89
2022/01/30 11:17:43;;;;;;;8.35;2.15;;;;;;;;;;4977388;28;20027;-89
2022/01/30 11:20:11;;;;;;;12.27;2.28;;;;;;;;;;4991927;28;20042;-88
2022/01/30 11:22:38;;;;;;;5.43;2.20;;;;;;;;;;4993665;28;20376;-90
2022/01/30 11:25:08;;;;;;;10.50;2.53;;;;;;;;;;4980887;28;20046;-87
2022/01/30 11:27:34;;;;;;;11.73;2.22;;;;;;;;;;4990067;28;20034;-86
2022/01/30 11:30:01;;;;;;;12.38;2.58;;;;;;;;;;4990297;28;20493;-85
2022/01/30 11:32:28;;;;;;;10.93;2.38;;;;;;;;;;4992679;28;20015;-86
2022/01/30 11:34:55;;;;;;;7.28;1.98;;;;;;;;;;4995275;28;20037;-86
2022/01/30 11:37:24;;;;;;;6.05;2.20;;;;;;;;;;4992514;28;20041;-86
2022/01/30 11:39:53;;;;;;;12.95;2.42;;;;;;;;;;4990728;28;20018;-84
2022/01/30 11:42:25;;;;;;;13.68;2.33;;;;;;;;;;4993510;28;20109;-86
2022/01/30 11:45:18;;;;;;;5.07;1.75;;;;;;;;;;5004064;28;20029;-85
2022/01/30 11:47:46;;;;;;;5.40;1.65;;;;;;;;;;4994765;28;20468;-84
2022/01/30 11:50:13;;;;;;;7.47;1.98;;;;;;;;;;4997785;28;20117;-84
2022/01/30 11:52:55;;;;;;;7.47;2.30;;;;;;;;;;4993610;28;20077;-84
2022/01/30 11:55:59;;;;;;;8.90;2.17;;;;;;;;;;4974280;28;20030;-86
2022/01/30 11:58:38;;;;;;;5.35;1.77;;;;;;;;;;4986310;28;20042;-86
2022/01/30 12:01:25;;;;;;;8.40;2.50;;;;;;;;;;4998219;28;20030;-86
2022/01/30 12:03:59;;;;;;;11.70;3.22;;;;;;;;;;4972288;28;20027;-86
2022/01/30 12:06:25;;;;;;;11.25;3.03;;;;;;;;;;4997605;28;20026;-86
2022/01/30 12:08:55;;;;;;;4.63;1.98;;;;;;;;;;4969512;28;20027;-87
2022/01/30 12:11:47;;;;;;;13.30;2.20;;;;;;;;;;4998976;28;20423;-87
2022/01/30 12:14:21;;;;;;;8.48;2.35;;;;;;;;;;4997914;28;20019;-84
2022/01/30 12:16:47;;;;;;;8.18;2.22;;;;;;;;;;4998269;28;20384;-87
2022/01/30 12:19:16;;;;;;;8.05;2.20;;;;;;;;;;4987001;28;20022;-87
2022/01/30 12:21:43;;;;;;;4.63;2.28;;;;;;;;;;4996178;28;20022;-85
2022/01/30 12:24:22;;;;;;;8.27;1.65;;;;;;;;;;4996613;28;20030;-86
2022/01/30 12:27:00;;;;;;;6.38;2.47;;;;;;;;;;4996110;28;20109;-86
2022/01/30 12:29:44;;;;;;;9.27;2.28;;;;;;;;;;4979064;28;20062;-86
2022/01/30 12:34:56;;;;;;;3.13;1.05;;;;;;;;;;4996617;28;20034;-84
2022/01/30 12:37:36;;;;;;;12.00;2.38;;;;;;;;;;4996224;28;20082;-85
2022/01/30 12:40:15;;;;;;;21.30;2.38;;;;;;;;;;4988657;28;20037;-86
2022/01/30 12:42:41;;;;;;;6.40;1.50;;;;;;;;;;4998042;28;20502;-86
2022/01/30 12:45:11;;;;;;;11.80;2.00;;;;;;;;;;4978809;28;20030;-85
2022/01/30 12:47:52;;;;;;;6.78;1.73;;;;;;;;;;4980103;28;20158;-86
2022/01/30 12:50:20;;;;;;;10.23;1.90;;;;;;;;;;4987473;28;20017;-85
2022/01/30 12:52:51;;;;;;;4.05;1.13;;;;;;;;;;4995721;28;20030;-86
2022/01/30 12:55:18;;;;;;;10.40;1.98;;;;;;;;;;4987451;28;20034;-86
2022/01/30 12:57:45;;;;;;;11.05;1.92;;;;;;;;;;4995284;28;20042;-86
2022/01/30 13:00:13;;;;;;;11.27;2.10;;;;;;;;;;4996843;28;20038;-85
2022/01/30 13:02:51;;;;;;;11.70;2.25;;;;;;;;;;4997143;28;20084;-86
2022/01/30 13:05:17;;;;;;;5.18;2.03;;;;;;;;;;4989932;28;20022;-87
2022/01/30 13:07:54;;;;;;;10.13;2.88;;;;;;;;;;4994015;28;20077;-86
2022/01/30 13:10:21;;;;;;;1.23;0.85;;;;;;;;;;4991045;28;20018;-84
2022/01/30 13:12:47;;;;;;;8.05;2.40;;;;;;;;;;4993421;28;20367;-86
2022/01/30 13:15:17;;;;;;;5.18;1.90;;;;;;;;;;4980548;28;20483;-85
2022/01/30 13:17:43;;;;;;;12.82;2.75;;;;;;;;;;4982477;28;20026;-85
2022/01/30 13:20:11;;;;;;;8.68;1.85;;;;;;;;;;4998212;28;20049;-86
2022/01/30 13:22:40;;;;;;;4.38;1.45;;;;;;;;;;4997506;28;20019;-85
2022/01/30 13:25:08;;;;;;;8.25;1.75;;;;;;;;;;4989599;28;20475;-86
2022/01/30 13:27:36;;;;;;;4.55;1.73;;;;;;;;;;4980769;28;20580;-85
2022/01/30 13:30:03;;;;;;;8.50;1.88;;;;;;;;;;4996855;28;20089;-85
2022/01/30 13:32:28;;;;;;;3.60;1.58;;;;;;;;;;4996759;28;20023;-85
2022/01/30 13:34:56;;;;;;;10.77;2.25;;;;;;;;;;4997948;28;20069;-86
2022/01/30 13:37:22;;;;;;;7.22;1.80;;;;;;;;;;4982994;28;20068;-88
2022/01/30 13:47:40;;;;;;;10.20;2.15;;;;;;;;;;4995148;28;20056;-85
2022/01/30 13:50:16;;;;;;;7.15;1.70;;;;;;;;;;4996083;28;20030;-86
2022/01/30 13:52:41;;;;;;;11.93;1.75;;;;;;;;;;5001901;28;20400;-86
2022/01/30 13:55:07;;;;;;;9.23;2.80;;;;;;;;;;4996999;28;20030;-86
2022/01/30 13:57:35;;;;;;;12.05;2.35;;;;;;;;;;4991621;28;20384;-86
2022/01/30 14:00:18;;;;;;;9.70;2.50;;;;;;;;;;4977984;28;20022;-86
2022/01/30 14:03:10;;;;;;;9.48;2.20;;;;;;;;;;4993431;28;20022;-86
2022/01/30 14:05:41;;;;;;;8.13;1.67;;;;;;;;;;4977074;28;20106;-85
2022/01/30 14:08:15;;;;;;;5.67;1.87;;;;;;;;;;4993546;28;20042;-84
2022/01/30 14:10:42;;;;;;;5.10;1.65;;;;;;;;;;4979332;28;20257;-86
2022/01/30 14:13:29;;;;;;;6.80;1.65;;;;;;;;;;4979165;28;20019;-86
2022/01/30 14:16:04;;;;;;;11.10;2.33;;;;;;;;;;4981417;28;20427;-83
2022/01/30 14:18:34;;;;;;;11.88;2.78;;;;;;;;;;4999813;28;20022;-85
2022/01/30 14:21:01;;;;;;;11.60;2.60;;;;;;;;;;4976714;28;20081;-85
2022/01/30 14:23:34;;;;;;;6.32;1.88;;;;;;;;;;4996317;28;20433;-86
2022/01/30 14:26:00;;;;;;;4.78;1.77;;;;;;;;;;4995251;28;20031;-85
2022/01/30 14:28:31;;;;;;;8.20;2.10;;;;;;;;;;4996686;28;20037;-87
2022/01/30 14:31:15;;;;;;;4.82;1.40;;;;;;;;;;4993854;28;20037;-86
2022/01/30 14:33:40;;;;;;;6.88;1.73;;;;;;;;;;4995980;28;20033;-85
2022/01/30 14:36:06;;;;;;;11.65;2.17;;;;;;;;;;4978339;28;20018;-85
2022/01/30 14:38:41;;;;;;;8.40;2.47;;;;;;;;;;4976550;28;20030;-85
2022/01/30 14:41:07;;;;;;;7.10;2.08;;;;;;;;;;4995328;28;20077;-86
2022/01/30 14:43:32;;;;;;;7.70;2.03;;;;;;;;;;4976389;28;20018;-86
2022/01/30 14:45:57;;;;;;;6.68;1.88;;;;;;;;;;4977537;28;20026;-87
2022/01/30 14:48:23;;;;;;;7.35;2.10;;;;;;;;;;4990381;28;20018;-85
2022/01/30 14:50:48;;;;;;;8.57;2.30;;;;;;;;;;4993221;28;20030;-85
2022/01/30 14:53:14;;;;;;;10.10;2.75;;;;;;;;;;4992988;28;20026;-85
2022/01/30 14:55:39;;;;;;;17.67;3.85;;;;;;;;;;4994082;28;20037;-86
2022/01/30 14:58:04;;;;;;;5.68;2.17;;;;;;;;;;4995521;28;20499;-87
2022/01/30 15:00:30;;;;;;;9.25;2.35;;;;;;;;;;4982067;28;20033;-86
2022/01/30 15:02:56;;;;;;;6.93;1.88;;;;;;;;;;4994312;28;20046;-86
2022/01/30 15:05:22;;;;;;;6.97;1.90;;;;;;;;;;4976595;28;20029;-86
2022/01/30 15:07:49;;;;;;;8.70;2.10;;;;;;;;;;4990817;28;20041;-85
2022/01/30 15:10:15;;;;;;;12.02;2.70;;;;;;;;;;4993727;28;20030;-86
2022/01/30 15:12:41;;;;;;;7.95;1.98;;;;;;;;;;4997609;28;20704;-85
2022/01/30 15:15:09;;;;;;;7.18;1.73;;;;;;;;;;4979938;28;20058;-86
2022/01/30 15:17:37;;;;;;;5.43;1.98;;;;;;;;;;4997094;28;20032;-85
2022/01/30 15:20:05;;;;;;;8.90;2.15;;;;;;;;;;4996706;28;20086;-86
2022/01/30 15:22:31;;;;;;;5.03;1.35;;;;;;;;;;4980040;28;20018;-87
2022/01/30 15:24:58;;;;;;;5.63;1.75;;;;;;;;;;4980411;28;20369;-85
2022/01/30 15:27:24;;;;;;;10.50;1.98;;;;;;;;;;4978951;28;20035;-85
2022/01/30 15:29:50;;;;;;;7.85;1.98;;;;;;;;;;5002814;28;20025;-84
2022/01/30 15:32:16;;;;;;;4.32;1.23;;;;;;;;;;4980086;28;20456;-83
2022/01/30 15:34:41;;;;;;;8.40;1.83;;;;;;;;;;4997418;28;20045;-84
2022/01/30 15:37:06;;;;;;;15.00;2.25;;;;;;;;;;5011457;28;20029;-83
2022/01/30 15:39:33;;;;;;;14.65;2.28;;;;;;;;;;4982458;28;20050;-84
2022/01/30 15:41:58;;;;;;;4.70;2.00;;;;;;;;;;5000243;28;20485;-85
2022/01/30 15:44:26;;;;;;;8.57;1.83;;;;;;;;;;4993629;28;20488;-85